sensor_id;sensor_type;location;lat;lon;timestamp;P1;durP1;ratioP1;P2;durP2;ratioP2
70122;SDS011;57489;37.404;24.920;2023-12-04T00:04:47;5.97;;;2.60;;
70122;SDS011;57489;37.404;24.920;2023-12-04T00:09:51;10.07;;;3.63;;
70122;SDS011;57489;37.404;24.920;2023-12-04T00:14:53;6.50;;;3.03;;
70122;SDS011;57489;37.404;24.920;2023-12-04T00:19:55;5.23;;;2.73;;
70122;SDS011;57489;37.404;24.920;2023-12-04T00:24:59;6.18;;;2.95;;
70122;SDS011;57489;37.404;24.920;2023-12-04T00:30:01;6.57;;;2.77;;
70122;SDS011;57489;37.404;24.920;2023-12-04T00:35:04;5.53;;;2.47;;
70122;SDS011;57489;37.404;24.920;2023-12-04T00:40:09;4.30;;;2.58;;
70122;SDS011;57489;37.404;24.920;2023-12-04T00:45:11;6.67;;;3.40;;
70122;SDS011;57489;37.404;24.920;2023-12-04T00:50:13;9.80;;;3.20;;
70122;SDS011;57489;37.404;24.920;2023-12-04T00:55:17;5.63;;;2.55;;
70122;SDS011;57489;37.404;24.920;2023-12-04T01:00:19;6.00;;;2.87;;
70122;SDS011;57489;37.404;24.920;2023-12-04T01:05:21;7.43;;;3.13;;
70122;SDS011;57489;37.404;24.920;2023-12-04T01:10:25;5.25;;;2.92;;
70122;SDS011;57489;37.404;24.920;2023-12-04T01:15:27;5.43;;;2.90;;
70122;SDS011;57489;37.404;24.920;2023-12-04T01:20:29;6.43;;;2.60;;
70122;SDS011;57489;37.404;24.920;2023-12-04T01:25:34;7.57;;;3.22;;
70122;SDS011;57489;37.404;24.920;2023-12-04T01:30:36;7.23;;;2.90;;
70122;SDS011;57489;37.404;24.920;2023-12-04T01:35:39;7.00;;;2.73;;
70122;SDS011;57489;37.404;24.920;2023-12-04T01:40:42;6.18;;;2.72;;
70122;SDS011;57489;37.404;24.920;2023-12-04T01:45:44;7.43;;;2.87;;
70122;SDS011;57489;37.404;24.920;2023-12-04T01:50:47;5.77;;;2.53;;
70122;SDS011;57489;37.404;24.920;2023-12-04T01:55:50;5.82;;;3.00;;
70122;SDS011;57489;37.404;24.920;2023-12-04T02:00:53;6.07;;;2.90;;
70122;SDS011;57489;37.404;24.920;2023-12-04T02:05:55;6.30;;;2.77;;
70122;SDS011;57489;37.404;24.920;2023-12-04T02:11:01;4.60;;;2.45;;
70122;SDS011;57489;37.404;24.920;2023-12-04T02:16:04;7.40;;;2.87;;
70122;SDS011;57489;37.404;24.920;2023-12-04T02:21:09;5.27;;;2.63;;
70122;SDS011;57489;37.404;24.920;2023-12-04T02:26:14;6.57;;;2.90;;
70122;SDS011;57489;37.404;24.920;2023-12-04T02:31:18;8.07;;;2.87;;
70122;SDS011;57489;37.404;24.920;2023-12-04T02:36:22;6.00;;;2.75;;
70122;SDS011;57489;37.404;24.920;2023-12-04T02:41:28;6.22;;;2.60;;
70122;SDS011;57489;37.404;24.920;2023-12-04T02:46:30;5.53;;;2.63;;
70122;SDS011;57489;37.404;24.920;2023-12-04T02:51:32;6.63;;;2.72;;
70122;SDS011;57489;37.404;24.920;2023-12-04T02:56:36;6.25;;;2.30;;
70122;SDS011;57489;37.404;24.920;2023-12-04T03:01:38;7.67;;;2.80;;
70122;SDS011;57489;37.404;24.920;2023-12-04T03:06:40;5.22;;;2.65;;
70122;SDS011;57489;37.404;24.920;2023-12-04T03:11:43;3.90;;;2.20;;
70122;SDS011;57489;37.404;24.920;2023-12-04T03:16:45;4.20;;;2.37;;
70122;SDS011;57489;37.404;24.920;2023-12-04T03:21:48;4.82;;;2.53;;
70122;SDS011;57489;37.404;24.920;2023-12-04T03:26:51;4.27;;;2.47;;
70122;SDS011;57489;37.404;24.920;2023-12-04T03:31:53;5.73;;;2.80;;
70122;SDS011;57489;37.404;24.920;2023-12-04T03:36:55;11.93;;;2.83;;
70122;SDS011;57489;37.404;24.920;2023-12-04T03:41:59;5.13;;;2.37;;
70122;SDS011;57489;37.404;24.920;2023-12-04T03:47:01;4.17;;;2.47;;
70122;SDS011;57489;37.404;24.920;2023-12-04T03:52:03;5.85;;;2.55;;
70122;SDS011;57489;37.404;24.920;2023-12-04T03:57:07;4.77;;;2.70;;
70122;SDS011;57489;37.404;24.920;2023-12-04T04:02:09;4.23;;;1.90;;
70122;SDS011;57489;37.404;24.920;2023-12-04T04:07:11;5.32;;;2.30;;
70122;SDS011;57489;37.404;24.920;2023-12-04T04:12:15;5.20;;;2.70;;
70122;SDS011;57489;37.404;24.920;2023-12-04T04:17:17;5.47;;;2.70;;
70122;SDS011;57489;37.404;24.920;2023-12-04T04:22:19;7.97;;;2.30;;
70122;SDS011;57489;37.404;24.920;2023-12-04T04:27:22;4.83;;;2.13;;
70122;SDS011;57489;37.404;24.920;2023-12-04T04:32:24;4.17;;;2.40;;
70122;SDS011;57489;37.404;24.920;2023-12-04T04:37:26;4.13;;;2.17;;
70122;SDS011;57489;37.404;24.920;2023-12-04T04:42:30;5.53;;;2.57;;
70122;SDS011;57489;37.404;24.920;2023-12-04T04:47:32;4.97;;;2.53;;
70122;SDS011;57489;37.404;24.920;2023-12-04T04:52:34;5.20;;;2.25;;
70122;SDS011;57489;37.404;24.920;2023-12-04T04:57:37;5.17;;;2.47;;
70122;SDS011;57489;37.404;24.920;2023-12-04T05:02:39;4.55;;;2.00;;
70122;SDS011;57489;37.404;24.920;2023-12-04T05:07:41;4.32;;;2.42;;
70122;SDS011;57489;37.404;24.920;2023-12-04T05:12:45;4.50;;;2.33;;
70122;SDS011;57489;37.404;24.920;2023-12-04T05:17:47;5.75;;;3.30;;
70122;SDS011;57489;37.404;24.920;2023-12-04T05:22:49;7.47;;;2.67;;
70122;SDS011;57489;37.404;24.920;2023-12-04T05:27:54;5.20;;;2.33;;
70122;SDS011;57489;37.404;24.920;2023-12-04T05:32:56;14.68;;;4.13;;
70122;SDS011;57489;37.404;24.920;2023-12-04T05:37:58;24.57;;;5.53;;
70122;SDS011;57489;37.404;24.920;2023-12-04T05:43:01;17.17;;;4.67;;
70122;SDS011;57489;37.404;24.920;2023-12-04T05:48:03;17.40;;;5.38;;
70122;SDS011;57489;37.404;24.920;2023-12-04T05:53:06;22.17;;;4.77;;
70122;SDS011;57489;37.404;24.920;2023-12-04T05:58:10;18.57;;;4.47;;
70122;SDS011;57489;37.404;24.920;2023-12-04T06:03:12;20.92;;;5.10;;
70122;SDS011;57489;37.404;24.920;2023-12-04T06:08:14;17.57;;;4.90;;
70122;SDS011;57489;37.404;24.920;2023-12-04T06:13:18;20.85;;;4.72;;
70122;SDS011;57489;37.404;24.920;2023-12-04T06:18:20;17.90;;;4.07;;
70122;SDS011;57489;37.404;24.920;2023-12-04T06:23:22;39.73;;;8.30;;
70122;SDS011;57489;37.404;24.920;2023-12-04T06:28:27;34.00;;;8.88;;
70122;SDS011;57489;37.404;24.920;2023-12-04T06:33:29;31.42;;;6.28;;
70122;SDS011;57489;37.404;24.920;2023-12-04T06:38:32;29.67;;;6.93;;
70122;SDS011;57489;37.404;24.920;2023-12-04T06:43:37;24.63;;;6.38;;
70122;SDS011;57489;37.404;24.920;2023-12-04T06:48:39;20.02;;;5.82;;
70122;SDS011;57489;37.404;24.920;2023-12-04T06:53:42;29.00;;;6.30;;
70122;SDS011;57489;37.404;24.920;2023-12-04T06:58:46;21.00;;;6.18;;
70122;SDS011;57489;37.404;24.920;2023-12-04T07:03:48;24.40;;;6.03;;
70122;SDS011;57489;37.404;24.920;2023-12-04T07:08:50;18.83;;;4.97;;
70122;SDS011;57489;37.404;24.920;2023-12-04T07:13:54;16.35;;;4.18;;
70122;SDS011;57489;37.404;24.920;2023-12-04T07:18:56;18.63;;;4.77;;
70122;SDS011;57489;37.404;24.920;2023-12-04T07:23:58;19.90;;;4.30;;
70122;SDS011;57489;37.404;24.920;2023-12-04T07:29:01;15.80;;;4.22;;
70122;SDS011;57489;37.404;24.920;2023-12-04T07:34:07;19.75;;;4.38;;
70122;SDS011;57489;37.404;24.920;2023-12-04T07:39:09;13.37;;;4.13;;
70122;SDS011;57489;37.404;24.920;2023-12-04T07:44:12;13.50;;;3.67;;
70122;SDS011;57489;37.404;24.920;2023-12-04T07:49:15;12.00;;;3.75;;
70122;SDS011;57489;37.404;24.920;2023-12-04T07:54:17;11.80;;;3.67;;
70122;SDS011;57489;37.404;24.920;2023-12-04T07:59:21;12.98;;;3.42;;
70122;SDS011;57489;37.404;24.920;2023-12-04T08:04:25;10.40;;;3.60;;
70122;SDS011;57489;37.404;24.920;2023-12-04T08:09:27;10.30;;;3.73;;
70122;SDS011;57489;37.404;24.920;2023-12-04T08:14:31;11.52;;;3.63;;
70122;SDS011;57489;37.404;24.920;2023-12-04T08:19:33;10.52;;;3.30;;
70122;SDS011;57489;37.404;24.920;2023-12-04T08:24:37;11.57;;;3.00;;
70122;SDS011;57489;37.404;24.920;2023-12-04T08:29:41;8.67;;;3.93;;
70122;SDS011;57489;37.404;24.920;2023-12-04T08:34:43;11.18;;;3.55;;
70122;SDS011;57489;37.404;24.920;2023-12-04T08:39:45;9.48;;;3.45;;
70122;SDS011;57489;37.404;24.920;2023-12-04T08:44:49;7.77;;;3.00;;
70122;SDS011;57489;37.404;24.920;2023-12-04T08:49:51;10.48;;;3.45;;
70122;SDS011;57489;37.404;24.920;2023-12-04T08:54:54;8.68;;;2.63;;
70122;SDS011;57489;37.404;24.920;2023-12-04T08:59:57;10.97;;;3.40;;
70122;SDS011;57489;37.404;24.920;2023-12-04T09:05:00;8.98;;;3.28;;
70122;SDS011;57489;37.404;24.920;2023-12-04T09:10:02;9.35;;;3.30;;
70122;SDS011;57489;37.404;24.920;2023-12-04T09:15:06;7.47;;;3.07;;
70122;SDS011;57489;37.404;24.920;2023-12-04T09:20:08;7.70;;;2.80;;
70122;SDS011;57489;37.404;24.920;2023-12-04T09:25:11;8.90;;;2.75;;
70122;SDS011;57489;37.404;24.920;2023-12-04T09:30:15;8.32;;;3.00;;
70122;SDS011;57489;37.404;24.920;2023-12-04T09:35:17;7.13;;;2.77;;
70122;SDS011;57489;37.404;24.920;2023-12-04T09:40:19;6.60;;;2.40;;
70122;SDS011;57489;37.404;24.920;2023-12-04T09:45:23;7.63;;;2.67;;
70122;SDS011;57489;37.404;24.920;2023-12-04T09:50:25;9.00;;;2.20;;
70122;SDS011;57489;37.404;24.920;2023-12-04T09:55:28;5.15;;;2.33;;
70122;SDS011;57489;37.404;24.920;2023-12-04T10:00:31;8.20;;;2.50;;
70122;SDS011;57489;37.404;24.920;2023-12-04T10:05:34;9.07;;;2.63;;
70122;SDS011;57489;37.404;24.920;2023-12-04T10:10:36;7.03;;;2.70;;
70122;SDS011;57489;37.404;24.920;2023-12-04T10:15:47;6.93;;;3.13;;
70122;SDS011;57489;37.404;24.920;2023-12-04T10:20:51;7.47;;;2.70;;
70122;SDS011;57489;37.404;24.920;2023-12-04T10:25:53;5.83;;;2.50;;
70122;SDS011;57489;37.404;24.920;2023-12-04T10:30:57;7.47;;;3.00;;
70122;SDS011;57489;37.404;24.920;2023-12-04T10:35:59;5.20;;;2.58;;
70122;SDS011;57489;37.404;24.920;2023-12-04T10:41:11;6.27;;;2.30;;
70122;SDS011;57489;37.404;24.920;2023-12-04T10:46:15;7.28;;;2.60;;
70122;SDS011;57489;37.404;24.920;2023-12-04T10:51:18;5.25;;;2.53;;
70122;SDS011;57489;37.404;24.920;2023-12-04T10:56:25;6.83;;;3.10;;
70122;SDS011;57489;37.404;24.920;2023-12-04T11:01:32;6.43;;;2.80;;
70122;SDS011;57489;37.404;24.920;2023-12-04T11:06:35;5.95;;;2.88;;
70122;SDS011;57489;37.404;24.920;2023-12-04T11:11:42;4.87;;;2.63;;
70122;SDS011;57489;37.404;24.920;2023-12-04T11:16:51;5.47;;;2.20;;
70122;SDS011;57489;37.404;24.920;2023-12-04T11:21:57;7.47;;;2.70;;
70122;SDS011;57489;37.404;24.920;2023-12-04T11:27:00;5.95;;;2.33;;
70122;SDS011;57489;37.404;24.920;2023-12-04T11:32:06;5.90;;;2.40;;
70122;SDS011;57489;37.404;24.920;2023-12-04T11:37:08;5.90;;;2.28;;
70122;SDS011;57489;37.404;24.920;2023-12-04T11:42:10;6.88;;;2.90;;
70122;SDS011;57489;37.404;24.920;2023-12-04T11:47:15;6.40;;;2.60;;
70122;SDS011;57489;37.404;24.920;2023-12-04T11:52:18;6.40;;;2.63;;
70122;SDS011;57489;37.404;24.920;2023-12-04T11:57:34;6.13;;;2.20;;
70122;SDS011;57489;37.404;24.920;2023-12-04T12:02:39;7.90;;;2.50;;
70122;SDS011;57489;37.404;24.920;2023-12-04T12:07:42;11.10;;;2.35;;
70122;SDS011;57489;37.404;24.920;2023-12-04T12:12:45;11.18;;;3.28;;
70122;SDS011;57489;37.404;24.920;2023-12-04T12:17:49;9.87;;;2.83;;
70122;SDS011;57489;37.404;24.920;2023-12-04T12:22:52;10.60;;;2.40;;
70122;SDS011;57489;37.404;24.920;2023-12-04T12:27:54;7.72;;;2.95;;
70122;SDS011;57489;37.404;24.920;2023-12-04T12:32:58;14.32;;;3.67;;
70122;SDS011;57489;37.404;24.920;2023-12-04T12:38:00;17.63;;;3.03;;
70122;SDS011;57489;37.404;24.920;2023-12-04T12:43:05;10.35;;;3.17;;
70122;SDS011;57489;37.404;24.920;2023-12-04T12:48:11;7.43;;;2.90;;
70122;SDS011;57489;37.404;24.920;2023-12-04T12:53:14;12.73;;;2.80;;
70122;SDS011;57489;37.404;24.920;2023-12-04T12:58:16;7.55;;;2.70;;
70122;SDS011;57489;37.404;24.920;2023-12-04T13:03:22;12.45;;;2.97;;
70122;SDS011;57489;37.404;24.920;2023-12-04T13:08:24;10.23;;;3.60;;
70122;SDS011;57489;37.404;24.920;2023-12-04T13:13:26;7.60;;;2.70;;
70122;SDS011;57489;37.404;24.920;2023-12-04T13:18:30;11.68;;;2.70;;
70122;SDS011;57489;37.404;24.920;2023-12-04T13:23:35;10.10;;;2.63;;
70122;SDS011;57489;37.404;24.920;2023-12-04T13:28:37;9.50;;;2.70;;
70122;SDS011;57489;37.404;24.920;2023-12-04T13:33:40;12.48;;;3.42;;
70122;SDS011;57489;37.404;24.920;2023-12-04T13:38:46;7.37;;;2.80;;
70122;SDS011;57489;37.404;24.920;2023-12-04T13:43:48;12.30;;;2.60;;
70122;SDS011;57489;37.404;24.920;2023-12-04T13:48:54;9.38;;;2.47;;
70122;SDS011;57489;37.404;24.920;2023-12-04T13:53:56;11.00;;;3.10;;
70122;SDS011;57489;37.404;24.920;2023-12-04T13:59:09;7.07;;;2.60;;
70122;SDS011;57489;37.404;24.920;2023-12-04T14:04:20;7.85;;;2.65;;
70122;SDS011;57489;37.404;24.920;2023-12-04T14:09:24;8.07;;;2.40;;
70122;SDS011;57489;37.404;24.920;2023-12-04T14:14:26;9.82;;;3.03;;
70122;SDS011;57489;37.404;24.920;2023-12-04T14:19:29;7.78;;;3.28;;
70122;SDS011;57489;37.404;24.920;2023-12-04T14:24:31;11.50;;;3.23;;
70122;SDS011;57489;37.404;24.920;2023-12-04T14:29:35;8.27;;;3.35;;
70122;SDS011;57489;37.404;24.920;2023-12-04T14:34:38;11.45;;;3.80;;
70122;SDS011;57489;37.404;24.920;2023-12-04T14:39:41;9.23;;;2.93;;
70122;SDS011;57489;37.404;24.920;2023-12-04T14:44:43;9.80;;;3.58;;
70122;SDS011;57489;37.404;24.920;2023-12-04T14:49:47;9.13;;;2.72;;
70122;SDS011;57489;37.404;24.920;2023-12-04T14:54:54;9.70;;;2.60;;
70122;SDS011;57489;37.404;24.920;2023-12-04T15:00:20;8.45;;;3.50;;
70122;SDS011;57489;37.404;24.920;2023-12-04T15:05:41;9.37;;;3.40;;
70122;SDS011;57489;37.404;24.920;2023-12-04T15:11:00;10.83;;;3.53;;
70122;SDS011;57489;37.404;24.920;2023-12-04T15:16:24;8.95;;;3.33;;
70122;SDS011;57489;37.404;24.920;2023-12-04T15:21:35;7.57;;;3.22;;
70122;SDS011;57489;37.404;24.920;2023-12-04T15:26:37;7.90;;;3.70;;
70122;SDS011;57489;37.404;24.920;2023-12-04T15:31:39;11.18;;;3.95;;
70122;SDS011;57489;37.404;24.920;2023-12-04T15:36:43;13.90;;;3.93;;
70122;SDS011;57489;37.404;24.920;2023-12-04T15:41:45;9.53;;;3.40;;
70122;SDS011;57489;37.404;24.920;2023-12-04T15:46:47;12.60;;;4.43;;
70122;SDS011;57489;37.404;24.920;2023-12-04T15:51:51;8.40;;;4.38;;
70122;SDS011;57489;37.404;24.920;2023-12-04T15:56:53;10.60;;;3.23;;
70122;SDS011;57489;37.404;24.920;2023-12-04T16:01:55;14.90;;;4.40;;
70122;SDS011;57489;37.404;24.920;2023-12-04T16:06:58;7.93;;;3.57;;
70122;SDS011;57489;37.404;24.920;2023-12-04T16:12:00;11.33;;;3.13;;
70122;SDS011;57489;37.404;24.920;2023-12-04T16:17:03;7.55;;;3.05;;
70122;SDS011;57489;37.404;24.920;2023-12-04T16:22:07;7.32;;;3.30;;
70122;SDS011;57489;37.404;24.920;2023-12-04T16:27:09;9.37;;;3.17;;
70122;SDS011;57489;37.404;24.920;2023-12-04T16:32:12;8.43;;;3.92;;
70122;SDS011;57489;37.404;24.920;2023-12-04T16:37:16;9.87;;;3.40;;
70122;SDS011;57489;37.404;24.920;2023-12-04T16:42:18;7.63;;;3.00;;
70122;SDS011;57489;37.404;24.920;2023-12-04T16:47:21;7.20;;;2.65;;
70122;SDS011;57489;37.404;24.920;2023-12-04T16:52:25;9.67;;;3.23;;
70122;SDS011;57489;37.404;24.920;2023-12-04T16:57:27;6.87;;;3.00;;
70122;SDS011;57489;37.404;24.920;2023-12-04T17:02:30;11.75;;;3.40;;
70122;SDS011;57489;37.404;24.920;2023-12-04T17:07:33;13.40;;;3.03;;
70122;SDS011;57489;37.404;24.920;2023-12-04T17:12:36;10.30;;;3.20;;
70122;SDS011;57489;37.404;24.920;2023-12-04T17:17:44;11.50;;;3.63;;
70122;SDS011;57489;37.404;24.920;2023-12-04T17:22:47;9.53;;;2.90;;
70122;SDS011;57489;37.404;24.920;2023-12-04T17:27:50;11.80;;;3.03;;
70122;SDS011;57489;37.404;24.920;2023-12-04T17:32:52;10.20;;;2.72;;
70122;SDS011;57489;37.404;24.920;2023-12-04T17:37:56;11.75;;;3.50;;
70122;SDS011;57489;37.404;24.920;2023-12-04T17:42:58;12.20;;;4.07;;
70122;SDS011;57489;37.404;24.920;2023-12-04T17:48:01;13.57;;;3.08;;
70122;SDS011;57489;37.404;24.920;2023-12-04T17:53:05;10.77;;;2.60;;
70122;SDS011;57489;37.404;24.920;2023-12-04T17:58:08;8.17;;;3.10;;
70122;SDS011;57489;37.404;24.920;2023-12-04T18:03:13;12.15;;;3.45;;
70122;SDS011;57489;37.404;24.920;2023-12-04T18:08:18;8.60;;;2.97;;
70122;SDS011;57489;37.404;24.920;2023-12-04T18:13:21;11.23;;;2.90;;
70122;SDS011;57489;37.404;24.920;2023-12-04T18:18:24;10.13;;;2.88;;
70122;SDS011;57489;37.404;24.920;2023-12-04T18:23:27;6.10;;;2.40;;
70122;SDS011;57489;37.404;24.920;2023-12-04T18:28:31;10.93;;;2.97;;
70122;SDS011;57489;37.404;24.920;2023-12-04T18:33:35;11.50;;;4.28;;
70122;SDS011;57489;37.404;24.920;2023-12-04T18:38:42;7.93;;;3.20;;
70122;SDS011;57489;37.404;24.920;2023-12-04T18:43:51;13.83;;;3.10;;
70122;SDS011;57489;37.404;24.920;2023-12-04T18:48:54;15.95;;;3.55;;
70122;SDS011;57489;37.404;24.920;2023-12-04T18:53:59;10.53;;;3.40;;
70122;SDS011;57489;37.404;24.920;2023-12-04T18:59:02;11.30;;;2.97;;
70122;SDS011;57489;37.404;24.920;2023-12-04T19:04:04;7.57;;;2.55;;
70122;SDS011;57489;37.404;24.920;2023-12-04T19:09:08;6.23;;;2.30;;
70122;SDS011;57489;37.404;24.920;2023-12-04T19:14:12;7.73;;;2.40;;
70122;SDS011;57489;37.404;24.920;2023-12-04T19:19:14;7.20;;;2.42;;
70122;SDS011;57489;37.404;24.920;2023-12-04T19:24:18;9.77;;;3.67;;
70122;SDS011;57489;37.404;24.920;2023-12-04T19:29:20;6.73;;;2.73;;
70122;SDS011;57489;37.404;24.920;2023-12-04T19:34:22;10.02;;;3.22;;
70122;SDS011;57489;37.404;24.920;2023-12-04T19:39:27;8.77;;;3.30;;
70122;SDS011;57489;37.404;24.920;2023-12-04T19:44:29;6.97;;;2.43;;
70122;SDS011;57489;37.404;24.920;2023-12-04T19:49:31;13.05;;;3.83;;
70122;SDS011;57489;37.404;24.920;2023-12-04T19:54:35;9.30;;;3.43;;
70122;SDS011;57489;37.404;24.920;2023-12-04T19:59:37;6.30;;;2.50;;
70122;SDS011;57489;37.404;24.920;2023-12-04T20:04:40;8.23;;;2.60;;
70122;SDS011;57489;37.404;24.920;2023-12-04T20:09:44;9.27;;;3.27;;
70122;SDS011;57489;37.404;24.920;2023-12-04T20:14:46;7.73;;;2.90;;
70122;SDS011;57489;37.404;24.920;2023-12-04T20:19:50;7.68;;;3.70;;
70122;SDS011;57489;37.404;24.920;2023-12-04T20:24:53;7.47;;;3.40;;
70122;SDS011;57489;37.404;24.920;2023-12-04T20:29:55;10.77;;;3.20;;
70122;SDS011;57489;37.404;24.920;2023-12-04T20:34:57;9.43;;;3.08;;
70122;SDS011;57489;37.404;24.920;2023-12-04T20:40:01;6.97;;;3.10;;
70122;SDS011;57489;37.404;24.920;2023-12-04T20:45:05;9.77;;;2.60;;
70122;SDS011;57489;37.404;24.920;2023-12-04T20:50:09;8.32;;;3.08;;
70122;SDS011;57489;37.404;24.920;2023-12-04T20:55:12;7.90;;;2.57;;
70122;SDS011;57489;37.404;24.920;2023-12-04T21:00:15;6.77;;;2.43;;
70122;SDS011;57489;37.404;24.920;2023-12-04T21:05:17;10.15;;;3.88;;
70122;SDS011;57489;37.404;24.920;2023-12-04T21:10:23;10.47;;;3.23;;
70122;SDS011;57489;37.404;24.920;2023-12-04T21:15:25;7.10;;;2.63;;
70122;SDS011;57489;37.404;24.920;2023-12-04T21:20:27;9.30;;;3.35;;
70122;SDS011;57489;37.404;24.920;2023-12-04T21:25:31;8.27;;;3.07;;
70122;SDS011;57489;37.404;24.920;2023-12-04T21:30:33;9.63;;;3.20;;
70122;SDS011;57489;37.404;24.920;2023-12-04T21:35:35;8.25;;;3.00;;
70122;SDS011;57489;37.404;24.920;2023-12-04T21:40:39;5.57;;;2.47;;
70122;SDS011;57489;37.404;24.920;2023-12-04T21:45:41;7.83;;;2.90;;
70122;SDS011;57489;37.404;24.920;2023-12-04T21:50:44;6.40;;;2.55;;
70122;SDS011;57489;37.404;24.920;2023-12-04T21:55:47;8.63;;;3.43;;
70122;SDS011;57489;37.404;24.920;2023-12-04T22:00:49;7.00;;;2.90;;
70122;SDS011;57489;37.404;24.920;2023-12-04T22:05:52;7.45;;;2.40;;
70122;SDS011;57489;37.404;24.920;2023-12-04T22:10:55;7.33;;;3.10;;
70122;SDS011;57489;37.404;24.920;2023-12-04T22:15:57;4.83;;;2.20;;
70122;SDS011;57489;37.404;24.920;2023-12-04T22:20:59;5.80;;;2.75;;
70122;SDS011;57489;37.404;24.920;2023-12-04T22:26:03;9.53;;;2.90;;
70122;SDS011;57489;37.404;24.920;2023-12-04T22:31:06;5.43;;;2.40;;
70122;SDS011;57489;37.404;24.920;2023-12-04T22:36:11;7.90;;;3.08;;
70122;SDS011;57489;37.404;24.920;2023-12-04T22:41:15;5.93;;;2.97;;
70122;SDS011;57489;37.404;24.920;2023-12-04T22:46:17;6.63;;;2.60;;
70122;SDS011;57489;37.404;24.920;2023-12-04T22:51:19;5.65;;;2.80;;
70122;SDS011;57489;37.404;24.920;2023-12-04T22:56:23;6.83;;;2.50;;
70122;SDS011;57489;37.404;24.920;2023-12-04T23:01:25;7.07;;;3.50;;
70122;SDS011;57489;37.404;24.920;2023-12-04T23:06:27;7.78;;;3.58;;
70122;SDS011;57489;37.404;24.920;2023-12-04T23:11:31;6.83;;;2.93;;
70122;SDS011;57489;37.404;24.920;2023-12-04T23:16:34;4.23;;;2.47;;
70122;SDS011;57489;37.404;24.920;2023-12-04T23:21:36;5.65;;;2.80;;
70122;SDS011;57489;37.404;24.920;2023-12-04T23:26:40;5.57;;;3.00;;
70122;SDS011;57489;37.404;24.920;2023-12-04T23:31:42;5.23;;;2.90;;
70122;SDS011;57489;37.404;24.920;2023-12-04T23:36:44;6.25;;;3.42;;
70122;SDS011;57489;37.404;24.920;2023-12-04T23:41:47;5.77;;;2.90;;
70122;SDS011;57489;37.404;24.920;2023-12-04T23:46:50;7.40;;;2.70;;
70122;SDS011;57489;37.404;24.920;2023-12-04T23:51:53;6.80;;;3.83;;
70122;SDS011;57489;37.404;24.920;2023-12-04T23:56:56;7.30;;;2.67;;
